Time;durP1;ratioP1;P1;durP2;ratioP2;P2;SDS_P1;SDS_P2;PMS_P1;PMS_P2;Temp;Humidity;BMP_temperature;BMP_pressure;BME280_temperature;BME280_humidity;BME280_pressure;Samples;Min_cycle;Max_cycle;Signal;HPM_P1;HPM_P2
2022/01/11 00:00:36;;;;;;;15.90;11.47;;;2.60;99.90;;;;;;5030764;28;20271;-72
2022/01/11 00:03:04;;;;;;;13.73;10.77;;;2.60;99.90;;;;;;5031540;28;20215;-72
2022/01/11 00:05:37;;;;;;;16.30;10.73;;;2.60;99.90;;;;;;5025692;28;20176;-71
2022/01/11 00:08:04;;;;;;;14.57;10.20;;;2.60;99.90;;;;;;5031270;28;20210;-71
2022/01/11 00:10:34;;;;;;;15.47;10.17;;;2.60;99.90;;;;;;5032307;28;20184;-71
2022/01/11 00:13:00;;;;;;;13.77;9.80;;;2.60;99.90;;;;;;5031166;28;20204;-72
2022/01/11 00:15:26;;;;;;;14.80;11.33;;;2.70;99.90;;;;;;5032929;28;20181;-71
2022/01/11 00:17:53;;;;;;;16.60;10.67;;;2.70;99.90;;;;;;5032091;28;20264;-72
2022/01/11 00:20:20;;;;;;;14.83;11.20;;;2.70;99.90;;;;;;5033592;28;20176;-71
2022/01/11 00:25:24;;;;;;;14.93;10.10;;;2.70;99.90;;;;;;5031068;28;20536;-71
2022/01/11 00:27:50;;;;;;;15.67;10.17;;;2.70;99.90;;;;;;5028446;28;20263;-72
2022/01/11 00:30:15;;;;;;;16.20;11.47;;;2.70;99.90;;;;;;5032279;28;20264;-71
2022/01/11 00:32:47;;;;;;;14.60;10.10;;;2.70;99.90;;;;;;5034493;28;20208;-71
2022/01/11 00:35:16;;;;;;;16.43;10.97;;;2.70;99.90;;;;;;5029180;28;20567;-71
2022/01/11 00:37:42;;;;;;;11.90;10.03;;;2.70;99.90;;;;;;5031055;28;20191;-71
2022/01/11 00:40:09;;;;;;;14.30;10.27;;;2.70;99.90;;;;;;5033227;28;20202;-71
2022/01/11 00:42:35;;;;;;;14.20;10.07;;;2.80;99.90;;;;;;5034000;28;20213;-71
2022/01/11 00:45:03;;;;;;;16.83;10.67;;;2.80;99.90;;;;;;5027920;28;20192;-72
2022/01/11 00:47:29;;;;;;;13.17;9.30;;;2.80;99.90;;;;;;5031352;28;20221;-71
2022/01/11 00:49:55;;;;;;;14.43;10.47;;;2.80;99.90;;;;;;5032243;28;20741;-72
2022/01/11 00:52:21;;;;;;;13.47;9.40;;;2.80;99.90;;;;;;5031211;28;20227;-71
2022/01/11 00:54:47;;;;;;;13.23;10.33;;;2.80;99.90;;;;;;5027651;28;20215;-71
2022/01/11 00:57:12;;;;;;;12.53;9.40;;;2.70;99.90;;;;;;5030415;28;20199;-71
2022/01/11 00:59:38;;;;;;;15.73;10.07;;;2.70;99.90;;;;;;5031644;28;20181;-71
2022/01/11 01:02:04;;;;;;;13.80;9.87;;;2.70;99.90;;;;;;5037532;28;20230;-71
2022/01/11 01:04:30;;;;;;;12.10;9.53;;;2.70;99.90;;;;;;5036065;28;20205;-71
2022/01/11 01:06:56;;;;;;;11.83;9.23;;;2.80;99.90;;;;;;5030480;28;20181;-72
2022/01/11 01:09:23;;;;;;;13.80;10.47;;;2.70;99.90;;;;;;5030980;28;20404;-71
2022/01/11 01:11:49;;;;;;;12.40;9.40;;;2.70;99.90;;;;;;5036113;28;20204;-71
2022/01/11 01:14:16;;;;;;;14.77;9.83;;;2.70;99.90;;;;;;5032618;28;20707;-71
2022/01/11 01:16:41;;;;;;;15.67;9.60;;;2.70;99.90;;;;;;5034434;28;20181;-71
2022/01/11 01:19:07;;;;;;;14.20;9.97;;;2.60;99.90;;;;;;5033919;28;20534;-71
2022/01/11 01:21:37;;;;;;;13.03;9.67;;;2.70;99.90;;;;;;5035448;28;20246;-71
2022/01/11 01:24:08;;;;;;;14.23;9.70;;;2.70;99.90;;;;;;5032974;28;20309;-72
2022/01/11 01:26:34;;;;;;;12.60;9.40;;;2.70;99.90;;;;;;5032246;28;20259;-71
2022/01/11 01:29:00;;;;;;;17.10;11.10;;;2.70;99.90;;;;;;5031662;28;20263;-71
2022/01/11 01:31:29;;;;;;;16.10;10.17;;;2.70;99.90;;;;;;5034853;28;20181;-71
2022/01/11 01:33:56;;;;;;;14.60;10.33;;;2.70;99.90;;;;;;5028052;28;20192;-71
2022/01/11 01:36:23;;;;;;;14.67;9.57;;;2.70;99.90;;;;;;5034426;28;20535;-71
2022/01/11 01:38:49;;;;;;;13.33;9.23;;;2.70;99.90;;;;;;5034241;28;20194;-72
2022/01/11 01:41:17;;;;;;;14.17;10.27;;;2.70;99.90;;;;;;5032615;28;20200;-71
2022/01/11 01:43:46;;;;;;;15.83;10.27;;;2.70;99.90;;;;;;5032934;28;20196;-71
2022/01/11 01:46:12;;;;;;;16.53;10.20;;;2.70;99.90;;;;;;5030299;28;20173;-71
2022/01/11 01:48:38;;;;;;;14.73;10.50;;;2.70;99.90;;;;;;5032228;28;20173;-71
2022/01/11 01:51:06;;;;;;;12.30;9.43;;;2.70;99.90;;;;;;5037174;28;20238;-71
2022/01/11 01:53:34;;;;;;;14.70;9.97;;;2.60;99.90;;;;;;5035247;28;20270;-71
2022/01/11 01:55:59;;;;;;;12.90;9.67;;;2.60;99.90;;;;;;5032988;28;20176;-72
2022/01/11 01:58:25;;;;;;;11.97;9.13;;;2.60;99.90;;;;;;5032017;28;20599;-71
2022/01/11 02:00:54;;;;;;;13.70;10.47;;;2.70;99.90;;;;;;5034565;28;20231;-71
2022/01/11 02:03:29;;;;;;;13.13;8.90;;;2.80;99.90;;;;;;5033313;28;20200;-71
2022/01/11 02:05:56;;;;;;;13.43;9.23;;;2.80;99.90;;;;;;5034735;28;20691;-71
2022/01/11 02:08:22;;;;;;;15.38;9.63;;;2.80;99.90;;;;;;5034471;28;20185;-72
2022/01/11 02:10:49;;;;;;;16.63;10.47;;;2.70;99.90;;;;;;5030645;28;20189;-72
2022/01/11 02:13:14;;;;;;;13.67;9.13;;;2.60;99.90;;;;;;5030409;28;20542;-72
2022/01/11 02:15:40;;;;;;;14.77;9.87;;;2.60;99.90;;;;;;5036070;28;20177;-72
2022/01/11 02:18:12;;;;;;;14.07;9.10;;;2.60;99.90;;;;;;5032966;28;20204;-72
2022/01/11 02:20:45;;;;;;;13.37;9.73;;;2.70;99.90;;;;;;5032156;28;20260;-71
2022/01/11 02:23:14;;;;;;;12.23;9.17;;;2.70;99.90;;;;;;5032201;28;20227;-72
2022/01/11 02:25:40;;;;;;;13.60;9.93;;;2.70;99.90;;;;;;5030309;28;20187;-72
2022/01/11 02:28:07;;;;;;;14.77;9.40;;;2.70;99.90;;;;;;5032472;28;20192;-71
2022/01/11 02:30:34;;;;;;;14.93;10.33;;;2.80;99.90;;;;;;5031793;28;20641;-71
2022/01/11 02:33:03;;;;;;;12.97;9.57;;;2.70;99.90;;;;;;5035388;28;20206;-71
2022/01/11 02:35:29;;;;;;;15.10;10.03;;;2.70;99.90;;;;;;5033734;28;20663;-71
2022/01/11 02:37:55;;;;;;;14.83;9.57;;;2.60;99.90;;;;;;5034968;28;20185;-71
2022/01/11 02:40:21;;;;;;;15.47;10.67;;;2.60;99.90;;;;;;5030350;28;20667;-71
2022/01/11 02:42:46;;;;;;;13.20;9.70;;;2.50;99.90;;;;;;5030785;28;20303;-72
2022/01/11 02:45:14;;;;;;;14.63;10.63;;;2.50;99.90;;;;;;5032279;28;20204;-71
2022/01/11 02:47:40;;;;;;;14.43;10.33;;;2.50;99.90;;;;;;5034044;28;20176;-72
2022/01/11 02:50:06;;;;;;;14.07;10.13;;;2.50;99.90;;;;;;5034937;28;20317;-71
2022/01/11 02:52:32;;;;;;;16.97;10.70;;;2.40;99.90;;;;;;5031004;28;20193;-72
2022/01/11 02:54:57;;;;;;;18.30;9.93;;;2.40;99.90;;;;;;5032026;28;20222;-71
2022/01/11 02:57:23;;;;;;;14.40;9.40;;;2.40;99.90;;;;;;5033807;28;20262;-72
2022/01/11 02:59:49;;;;;;;14.53;9.87;;;2.50;99.90;;;;;;5031272;28;20289;-72
2022/01/11 03:02:14;;;;;;;14.17;10.00;;;2.50;99.90;;;;;;5029563;28;20212;-71
2022/01/11 03:04:40;;;;;;;12.43;9.33;;;2.50;99.90;;;;;;5032676;28;20177;-71
2022/01/11 03:07:06;;;;;;;15.23;10.43;;;2.60;99.90;;;;;;5031876;28;20180;-71
2022/01/11 03:09:42;;;;;;;12.63;9.27;;;2.60;99.90;;;;;;5034454;28;20648;-71
2022/01/11 03:12:09;;;;;;;16.47;9.47;;;2.60;99.90;;;;;;5034435;28;20679;-71
2022/01/11 03:14:34;;;;;;;13.30;9.80;;;2.70;99.90;;;;;;5027699;28;20710;-71
2022/01/11 03:17:00;;;;;;;14.27;9.80;;;2.70;99.90;;;;;;5027333;28;20218;-72
2022/01/11 03:19:25;;;;;;;14.17;9.93;;;2.70;99.90;;;;;;5032690;28;20240;-72
2022/01/11 03:21:51;;;;;;;13.33;9.00;;;2.50;99.90;;;;;;5030515;28;20208;-72
2022/01/11 03:24:16;;;;;;;14.53;9.87;;;2.50;99.90;;;;;;5029442;28;20267;-71
2022/01/11 03:26:42;;;;;;;14.87;10.53;;;2.50;99.90;;;;;;5025451;28;20173;-72
2022/01/11 03:29:07;;;;;;;15.10;10.47;;;2.40;99.90;;;;;;5021300;28;20193;-73
2022/01/11 03:31:33;;;;;;;14.50;10.50;;;2.40;99.90;;;;;;5026946;28;20183;-72
2022/01/11 03:33:59;;;;;;;13.33;9.60;;;2.30;99.90;;;;;;5023959;28;20226;-72
2022/01/11 03:36:24;;;;;;;14.70;10.43;;;2.30;99.90;;;;;;5026315;28;20263;-73
2022/01/11 03:38:50;;;;;;;18.03;10.20;;;2.30;99.90;;;;;;5019363;28;20592;-73
2022/01/11 03:41:15;;;;;;;16.37;11.33;;;2.30;99.90;;;;;;5026821;28;20195;-72
2022/01/11 03:43:41;;;;;;;16.80;10.90;;;2.30;99.90;;;;;;5028550;28;20554;-73
2022/01/11 03:46:07;;;;;;;14.80;11.20;;;2.30;99.90;;;;;;5033965;28;20635;-72
2022/01/11 03:48:33;;;;;;;14.33;10.10;;;2.30;99.90;;;;;;5021415;28;20702;-72
2022/01/11 03:50:59;;;;;;;14.83;10.10;;;2.30;99.90;;;;;;5027428;28;20263;-72
2022/01/11 03:53:29;;;;;;;15.83;10.13;;;2.30;99.90;;;;;;5021774;28;20766;-71
2022/01/11 03:58:21;;;;;;;16.17;11.27;;;2.30;99.90;;;;;;5026230;28;20555;-71
2022/01/11 04:00:47;;;;;;;14.90;9.77;;;2.30;99.90;;;;;;5030875;28;20193;-71
2022/01/11 04:03:13;;;;;;;13.93;10.67;;;2.30;99.90;;;;;;5029425;28;20227;-72
2022/01/11 04:05:41;;;;;;;14.67;10.37;;;2.30;99.90;;;;;;5028179;28;20178;-72
2022/01/11 04:08:07;;;;;;;14.33;10.17;;;2.40;99.90;;;;;;5032443;28;20184;-72
2022/01/11 04:10:32;;;;;;;16.50;10.23;;;2.30;99.90;;;;;;5031777;28;20546;-72
2022/01/11 04:12:58;;;;;;;16.07;10.30;;;2.30;99.90;;;;;;5031226;28;20210;-72
2022/01/11 04:15:23;;;;;;;13.70;8.70;;;2.30;99.90;;;;;;5025454;28;20553;-72
2022/01/11 04:17:49;;;;;;;11.23;8.77;;;2.30;99.90;;;;;;5031608;28;20180;-72
2022/01/11 04:20:18;;;;;;;15.00;10.40;;;2.30;99.90;;;;;;5031381;28;20577;-72
2022/01/11 04:22:43;;;;;;;14.00;10.33;;;2.30;99.90;;;;;;5028740;28;20215;-72
2022/01/11 04:25:09;;;;;;;16.23;10.43;;;2.30;99.90;;;;;;5022842;28;20183;-72
2022/01/11 04:27:35;;;;;;;15.37;10.27;;;2.30;99.90;;;;;;5018834;28;20180;-72
2022/01/11 04:30:00;;;;;;;15.13;10.03;;;2.30;99.90;;;;;;5028794;28;20194;-71
2022/01/11 04:32:28;;;;;;;13.87;10.03;;;2.30;99.90;;;;;;5020055;28;20205;-72
2022/01/11 04:34:54;;;;;;;11.67;8.83;;;2.30;99.90;;;;;;5027804;28;20651;-72
2022/01/11 04:37:20;;;;;;;12.80;9.67;;;2.30;99.90;;;;;;5035064;28;20238;-72
2022/01/11 04:39:45;;;;;;;13.70;10.73;;;2.30;99.90;;;;;;5035573;28;20176;-72
2022/01/11 04:42:11;;;;;;;13.60;8.60;;;2.30;99.90;;;;;;5037636;28;20258;-72
2022/01/11 04:44:36;;;;;;;11.73;8.67;;;2.20;99.90;;;;;;5039656;28;20239;-71
2022/01/11 04:47:02;;;;;;;14.90;9.13;;;2.20;99.90;;;;;;5042954;28;20172;-72
2022/01/11 04:49:28;;;;;;;13.60;10.07;;;2.30;99.90;;;;;;5037948;28;20190;-72
2022/01/11 04:51:54;;;;;;;14.80;9.43;;;2.30;99.90;;;;;;5025054;28;20391;-72
2022/01/11 04:54:20;;;;;;;12.80;9.07;;;2.30;99.90;;;;;;5033606;28;20553;-72
2022/01/11 04:56:46;;;;;;;12.77;8.70;;;2.20;99.90;;;;;;5037706;28;20183;-72
2022/01/11 04:59:11;;;;;;;13.97;8.90;;;2.20;99.90;;;;;;5036122;28;20243;-71
2022/01/11 05:01:37;;;;;;;13.83;9.50;;;2.20;99.90;;;;;;5031873;28;20767;-71
2022/01/11 05:04:03;;;;;;;11.80;9.00;;;2.20;99.90;;;;;;5031937;28;20186;-71
2022/01/11 05:06:28;;;;;;;14.20;9.77;;;2.10;99.90;;;;;;5032457;28;20179;-72
2022/01/11 05:08:54;;;;;;;12.80;8.70;;;2.10;99.90;;;;;;5034465;28;20181;-72
2022/01/11 05:11:22;;;;;;;13.87;9.10;;;2.00;99.90;;;;;;5033641;28;20617;-71
2022/01/11 05:13:48;;;;;;;16.17;10.60;;;2.00;99.90;;;;;;5034362;28;20200;-72
2022/01/11 05:16:13;;;;;;;12.20;8.17;;;2.00;99.90;;;;;;5033302;28;20646;-71
2022/01/11 05:18:39;;;;;;;12.47;8.63;;;2.00;99.90;;;;;;5032638;28;20192;-71
2022/01/11 05:21:05;;;;;;;14.10;8.93;;;2.00;99.90;;;;;;5037416;28;20187;-72
2022/01/11 05:23:31;;;;;;;12.33;8.50;;;2.00;99.90;;;;;;5034720;28;20196;-72
2022/01/11 05:25:57;;;;;;;13.13;9.17;;;2.00;99.90;;;;;;5033863;28;20216;-72
2022/01/11 05:28:22;;;;;;;13.97;9.10;;;2.00;99.90;;;;;;5031908;28;20181;-72
2022/01/11 05:30:48;;;;;;;17.83;11.07;;;2.00;99.90;;;;;;5036027;28;20208;-72
2022/01/11 05:33:14;;;;;;;12.47;9.07;;;1.90;99.90;;;;;;5029563;28;20204;-72
2022/01/11 05:35:40;;;;;;;11.53;8.90;;;1.90;99.90;;;;;;5032783;28;20222;-72
2022/01/11 05:38:06;;;;;;;13.27;8.83;;;1.80;99.90;;;;;;5028832;28;20552;-72
2022/01/11 05:40:32;;;;;;;13.17;8.23;;;1.70;99.90;;;;;;5032753;28;20189;-72
2022/01/11 05:42:59;;;;;;;16.43;9.60;;;1.60;99.90;;;;;;5030997;28;20217;-72
2022/01/11 05:45:25;;;;;;;13.90;9.93;;;1.50;99.90;;;;;;5029469;28;20177;-71
2022/01/11 05:47:53;;;;;;;15.17;9.67;;;1.40;99.90;;;;;;5028737;28;20187;-72
2022/01/11 05:50:20;;;;;;;17.37;10.50;;;1.30;99.90;;;;;;5034643;28;20636;-74
2022/01/11 05:52:48;;;;;;;14.47;10.80;;;1.30;99.90;;;;;;5033136;28;20208;-74
2022/01/11 05:55:14;;;;;;;14.77;9.70;;;1.30;99.90;;;;;;5031243;28;20590;-75
2022/01/11 05:57:43;;;;;;;14.17;9.87;;;1.20;99.90;;;;;;5032642;28;20182;-74
2022/01/11 06:00:13;;;;;;;14.23;9.90;;;1.20;99.90;;;;;;5028259;28;20667;-74
2022/01/11 06:02:41;;;;;;;16.03;10.70;;;1.20;99.90;;;;;;5030275;28;20292;-74
2022/01/11 06:05:08;;;;;;;15.23;9.60;;;1.10;99.90;;;;;;5027991;28;20188;-74
2022/01/11 06:07:33;;;;;;;15.83;10.40;;;1.00;99.90;;;;;;5032222;28;20177;-74
2022/01/11 06:09:59;;;;;;;13.27;9.47;;;1.00;99.90;;;;;;5022747;28;20179;-74
2022/01/11 06:12:24;;;;;;;13.57;9.77;;;1.00;99.90;;;;;;5025536;28;20224;-74
2022/01/11 06:14:50;;;;;;;10.87;8.40;;;0.90;99.90;;;;;;5029810;28;20636;-74
2022/01/11 06:17:15;;;;;;;12.33;9.73;;;0.90;99.90;;;;;;5024985;28;20200;-73
2022/01/11 06:19:41;;;;;;;15.60;10.03;;;0.90;99.90;;;;;;5030259;28;20268;-73
2022/01/11 06:22:08;;;;;;;15.93;10.57;;;0.90;99.90;;;;;;5031923;28;20217;-74
2022/01/11 06:24:34;;;;;;;17.07;10.93;;;0.90;99.90;;;;;;5032721;28;20272;-74
2022/01/11 06:26:59;;;;;;;19.73;12.13;;;0.90;99.90;;;;;;5029421;28;20222;-74
2022/01/11 06:29:25;;;;;;;17.20;11.40;;;0.90;99.90;;;;;;5034974;28;20855;-75
2022/01/11 06:31:50;;;;;;;16.37;10.70;;;0.90;99.90;;;;;;5038021;28;20209;-74
2022/01/11 06:34:16;;;;;;;22.10;11.60;;;0.90;99.90;;;;;;5030957;28;20548;-74
2022/01/11 06:36:42;;;;;;;16.20;11.73;;;0.90;99.90;;;;;;5034602;28;20188;-74
2022/01/11 06:39:07;;;;;;;15.10;10.80;;;0.80;99.90;;;;;;5032477;28;20535;-74
2022/01/11 06:41:35;;;;;;;19.27;12.43;;;0.80;99.90;;;;;;5024995;28;20205;-74
2022/01/11 06:44:01;;;;;;;19.17;11.63;;;0.90;99.90;;;;;;5022579;28;20180;-74
2022/01/11 06:46:28;;;;;;;16.27;11.53;;;0.80;99.90;;;;;;5026850;28;20185;-75
2022/01/11 06:48:54;;;;;;;20.50;11.80;;;0.80;99.90;;;;;;5030572;28;20170;-74
2022/01/11 06:51:20;;;;;;;16.97;10.40;;;0.80;99.90;;;;;;5033581;28;20599;-72
2022/01/11 06:53:46;;;;;;;21.27;12.17;;;0.80;99.90;;;;;;5030053;28;20207;-73
2022/01/11 06:56:12;;;;;;;17.37;11.00;;;0.80;99.90;;;;;;5024361;28;20527;-73
2022/01/11 06:58:38;;;;;;;15.83;11.73;;;0.80;99.90;;;;;;5032573;28;20173;-73
2022/01/11 07:01:04;;;;;;;20.83;11.63;;;0.70;99.90;;;;;;5025453;28;20199;-72
2022/01/11 07:03:30;;;;;;;20.63;11.27;;;0.70;99.90;;;;;;5029199;28;20208;-73
2022/01/11 07:05:55;;;;;;;16.33;11.27;;;0.60;99.90;;;;;;5031644;28;20529;-73
2022/01/11 07:08:21;;;;;;;18.90;11.10;;;0.60;99.90;;;;;;5025836;28;20184;-73
2022/01/11 07:10:47;;;;;;;17.80;11.10;;;0.60;99.90;;;;;;5029601;28;20309;-73
2022/01/11 07:13:13;;;;;;;15.90;9.93;;;0.70;99.90;;;;;;5032419;28;20204;-73
2022/01/11 07:15:38;;;;;;;16.90;10.47;;;0.70;99.90;;;;;;5031488;28;20184;-74
2022/01/11 07:18:09;;;;;;;17.80;10.37;;;0.70;99.90;;;;;;5031714;28;20182;-74
2022/01/11 07:20:35;;;;;;;15.60;10.50;;;0.70;99.90;;;;;;5019709;28;20200;-75
2022/01/11 07:23:00;;;;;;;15.77;9.30;;;0.70;99.90;;;;;;5031112;28;20611;-73
2022/01/11 07:25:30;;;;;;;14.70;10.07;;;0.70;99.90;;;;;;5026373;28;20243;-73
2022/01/11 07:27:56;;;;;;;12.60;9.87;;;0.70;99.90;;;;;;5030397;28;20177;-75
2022/01/11 07:30:22;;;;;;;17.90;12.90;;;0.80;99.90;;;;;;5019671;28;20786;-75
2022/01/11 07:32:48;;;;;;;14.23;9.23;;;0.80;99.90;;;;;;5032744;28;20577;-74
2022/01/11 07:35:13;;;;;;;13.53;9.63;;;0.80;99.90;;;;;;5028670;28;20196;-75
2022/01/11 07:37:39;;;;;;;15.70;10.27;;;0.80;99.90;;;;;;5033602;28;20674;-75
2022/01/11 07:40:06;;;;;;;17.77;10.23;;;0.90;99.90;;;;;;5017135;28;20189;-75
2022/01/11 07:42:32;;;;;;;16.57;10.57;;;0.90;99.90;;;;;;5022332;28;20208;-75
2022/01/11 07:44:57;;;;;;;13.87;10.03;;;1.00;99.90;;;;;;5024696;28;20674;-75
2022/01/11 07:47:23;;;;;;;13.20;10.53;;;1.20;99.90;;;;;;5022375;28;20216;-75
2022/01/11 07:49:49;;;;;;;14.10;10.67;;;1.30;99.90;;;;;;5031953;28;20180;-74
2022/01/11 07:52:16;;;;;;;16.33;11.27;;;1.40;99.90;;;;;;5025791;28;20274;-74
2022/01/11 07:54:41;;;;;;;15.40;10.03;;;1.40;99.90;;;;;;5027760;28;20254;-74
2022/01/11 07:57:07;;;;;;;15.30;10.35;;;1.50;99.90;;;;;;5026280;28;20433;-75
2022/01/11 07:59:33;;;;;;;13.47;9.70;;;1.70;99.90;;;;;;5030858;28;20725;-75
2022/01/11 08:01:59;;;;;;;13.73;8.90;;;1.80;99.90;;;;;;5029452;28;20752;-73
2022/01/11 08:04:26;;;;;;;14.93;9.33;;;1.90;99.90;;;;;;5030253;28;20219;-75
2022/01/11 08:06:52;;;;;;;14.13;9.43;;;2.10;99.90;;;;;;5028152;28;20578;-74
2022/01/11 08:09:18;;;;;;;15.33;9.73;;;2.20;99.90;;;;;;5029143;28;20168;-74
2022/01/11 08:11:44;;;;;;;12.33;9.37;;;2.40;99.90;;;;;;5028968;28;20180;-75
2022/01/11 08:14:10;;;;;;;13.97;9.90;;;2.60;99.90;;;;;;5026348;28;20185;-73
2022/01/11 08:16:36;;;;;;;14.23;9.80;;;2.70;99.90;;;;;;5027184;28;20184;-74
2022/01/11 08:19:01;;;;;;;13.97;9.23;;;2.80;99.90;;;;;;5029279;28;20181;-74
2022/01/11 08:21:27;;;;;;;12.67;8.10;;;3.00;99.90;;;;;;5029347;28;20184;-75
2022/01/11 08:23:52;;;;;;;13.93;8.80;;;3.20;99.90;;;;;;5023946;28;20200;-75
2022/01/11 08:26:18;;;;;;;12.60;9.37;;;3.30;99.90;;;;;;5017127;28;20176;-74
2022/01/11 08:28:44;;;;;;;14.03;9.33;;;3.30;99.90;;;;;;5018489;28;20176;-74
2022/01/11 08:31:10;;;;;;;9.57;8.00;;;3.40;99.90;;;;;;5020309;28;20211;-74
2022/01/11 08:33:38;;;;;;;10.90;7.70;;;3.70;99.90;;;;;;5020048;28;20197;-76
2022/01/11 08:36:04;;;;;;;13.00;8.57;;;4.00;99.90;;;;;;5023370;28;20164;-76
2022/01/11 08:38:29;;;;;;;11.98;8.60;;;4.30;99.90;;;;;;5016681;28;20166;-76
2022/01/11 08:40:55;;;;;;;12.13;8.68;;;4.40;99.90;;;;;;5017909;28;20200;-76
2022/01/11 08:43:21;;;;;;;13.10;9.25;;;4.50;99.90;;;;;;5023406;28;20582;-76
2022/01/11 08:45:46;;;;;;;11.55;9.18;;;4.50;99.90;;;;;;5020417;28;20216;-74
2022/01/11 08:48:12;;;;;;;9.27;8.13;;;4.30;99.90;;;;;;5022676;28;20276;-75
2022/01/11 08:50:38;;;;;;;9.20;8.07;;;4.20;99.90;;;;;;5025943;28;20182;-71
2022/01/11 08:53:03;;;;;;;9.77;8.07;;;4.00;99.90;;;;;;5029799;28;20196;-72
2022/01/11 08:55:29;;;;;;;8.80;7.93;;;3.80;99.90;;;;;;5025487;28;20177;-73
2022/01/11 08:57:55;;;;;;;9.70;7.93;;;3.70;99.90;;;;;;5025820;28;20193;-73
2022/01/11 09:00:23;;;;;;;8.85;7.55;;;3.80;99.90;;;;;;5029768;28;20664;-72
2022/01/11 09:02:54;;;;;;;10.35;7.88;;;3.80;99.90;;;;;;5026889;28;20625;-73
2022/01/11 09:05:21;;;;;;;10.52;9.10;;;3.70;99.90;;;;;;5022157;28;20169;-72
2022/01/11 09:07:48;;;;;;;10.00;8.00;;;3.70;99.90;;;;;;5029849;28;20185;-72
2022/01/11 09:10:15;;;;;;;9.43;7.47;;;3.60;99.90;;;;;;5032998;28;20234;-73
2022/01/11 09:12:41;;;;;;;8.77;7.13;;;3.50;99.90;;;;;;5028133;28;20307;-72
2022/01/11 09:15:08;;;;;;;8.55;7.65;;;3.50;99.90;;;;;;5027415;28;20196;-71
2022/01/11 09:17:35;;;;;;;8.23;7.43;;;3.60;99.90;;;;;;5030213;28;20191;-72
2022/01/11 09:20:01;;;;;;;9.07;7.57;;;3.70;99.90;;;;;;5031125;28;20203;-72
2022/01/11 09:22:27;;;;;;;7.63;6.53;;;3.90;99.90;;;;;;5026802;28;20224;-72
2022/01/11 09:24:55;;;;;;;7.38;6.68;;;4.20;99.90;;;;;;5033159;28;20184;-72
2022/01/11 09:27:20;;;;;;;6.78;6.07;;;5.20;99.90;;;;;;5035646;28;20179;-72
2022/01/11 09:29:46;;;;;;;6.55;5.95;;;6.80;99.90;;;;;;5032217;28;20185;-72
2022/01/11 09:32:12;;;;;;;5.65;5.13;;;8.90;99.90;;;;;;5022862;28;20212;-73
2022/01/11 09:34:39;;;;;;;5.40;4.85;;;10.20;99.90;;;;;;5030730;28;20509;-75
2022/01/11 09:37:06;;;;;;;4.75;4.35;;;11.90;99.90;;;;;;5029245;28;20183;-73
2022/01/11 09:39:32;;;;;;;4.60;4.20;;;12.90;95.70;;;;;;5036771;28;20651;-73
2022/01/11 09:41:59;;;;;;;4.47;3.70;;;13.80;90.60;;;;;;5033422;28;20213;-74
2022/01/11 09:44:26;;;;;;;4.60;3.78;;;14.50;81.90;;;;;;5041110;28;20199;-75
2022/01/11 09:46:52;;;;;;;4.20;3.80;;;15.00;79.10;;;;;;5020181;28;20255;-75
2022/01/11 09:49:18;;;;;;;3.58;3.28;;;14.70;75.60;;;;;;5029023;28;20263;-73
2022/01/11 09:51:44;;;;;;;3.90;3.60;;;13.70;76.20;;;;;;5028908;28;20188;-75
2022/01/11 09:54:12;;;;;;;3.95;3.65;;;13.20;76.40;;;;;;5028836;28;20188;-77
2022/01/11 09:56:38;;;;;;;5.00;4.60;;;12.50;79.00;;;;;;5027005;28;20652;-73
2022/01/11 09:59:05;;;;;;;3.80;3.50;;;11.60;82.60;;;;;;5031207;28;20268;-73
2022/01/11 10:01:31;;;;;;;4.25;3.83;;;11.00;84.10;;;;;;5027627;28;20203;-73
2022/01/11 10:04:04;;;;;;;4.00;3.70;;;9.70;88.60;;;;;;5027263;28;20185;-72
2022/01/11 10:06:32;;;;;;;3.80;3.47;;;9.10;91.70;;;;;;5033046;28;20211;-72
2022/01/11 10:09:18;;;;;;;3.80;3.47;;;8.50;91.50;;;;;;5029792;28;20192;-72
2022/01/11 10:11:55;;;;;;;3.75;3.42;;;7.80;92.90;;;;;;5028356;28;20651;-73
2022/01/11 10:14:31;;;;;;;3.92;3.63;;;7.00;95.30;;;;;;5031303;28;20177;-73
2022/01/11 10:17:09;;;;;;;4.15;3.85;;;6.60;98.40;;;;;;5029685;28;20189;-73
2022/01/11 10:19:37;;;;;;;3.72;3.42;;;6.30;99.40;;;;;;5032563;28;20180;-73
2022/01/11 10:22:06;;;;;;;4.15;3.80;;;6.20;99.90;;;;;;5036398;28;20208;-72
2022/01/11 10:24:35;;;;;;;3.95;3.65;;;6.20;99.90;;;;;;5033265;28;20797;-72
2022/01/11 10:27:08;;;;;;;4.53;3.63;;;6.10;99.90;;;;;;5030323;28;20182;-72
2022/01/11 10:29:43;;;;;;;3.88;3.58;;;6.10;99.90;;;;;;5033497;28;20231;-72
2022/01/11 10:32:20;;;;;;;3.85;3.55;;;6.00;99.90;;;;;;5030719;28;20208;-72
2022/01/11 10:34:49;;;;;;;4.20;3.83;;;6.00;99.90;;;;;;5028800;28;20189;-72
2022/01/11 10:37:49;;;;;;;4.55;4.22;;;6.40;99.90;;;;;;5033227;28;20263;-72
2022/01/11 10:40:17;;;;;;;3.72;3.42;;;6.60;99.90;;;;;;5047929;28;20666;-73
2022/01/11 10:42:50;;;;;;;4.50;4.10;;;6.60;99.90;;;;;;5031184;28;20225;-73
2022/01/11 10:45:17;;;;;;;4.78;4.25;;;6.50;99.90;;;;;;5022736;28;20726;-73
2022/01/11 10:47:47;;;;;;;4.05;3.75;;;6.20;99.90;;;;;;5031425;28;20191;-73
2022/01/11 10:50:26;;;;;;;4.18;3.88;;;6.40;99.90;;;;;;5028972;28;20704;-74
2022/01/11 10:52:51;;;;;;;4.20;3.90;;;6.50;99.90;;;;;;5034629;28;20254;-71
2022/01/11 10:55:20;;;;;;;5.40;4.45;;;6.60;99.90;;;;;;5029768;28;20216;-72
2022/01/11 10:57:51;;;;;;;4.07;3.75;;;6.60;99.90;;;;;;5026173;28;20300;-72
2022/01/11 11:00:37;;;;;;;4.45;4.05;;;6.40;99.90;;;;;;5032353;28;20864;-72
2022/01/11 11:03:12;;;;;;;5.13;4.57;;;6.40;99.90;;;;;;5032593;28;20694;-72
2022/01/11 11:05:50;;;;;;;4.22;3.83;;;6.30;99.90;;;;;;5029699;28;20278;-72
2022/01/11 11:08:24;;;;;;;5.32;4.82;;;6.30;99.90;;;;;;5032115;28;20180;-72
2022/01/11 11:10:55;;;;;;;5.90;5.30;;;6.10;99.90;;;;;;5032542;28;20184;-72
2022/01/11 11:13:34;;;;;;;5.85;4.57;;;5.70;99.90;;;;;;5031235;28;20196;-71
2022/01/11 11:16:11;;;;;;;5.47;4.97;;;5.60;99.90;;;;;;5033171;28;20192;-72
2022/01/11 11:18:44;;;;;;;5.45;4.55;;;5.50;99.90;;;;;;5026511;28;20247;-75
2022/01/11 11:21:39;;;;;;;6.70;5.78;;;5.50;99.90;;;;;;5036342;28;20246;-73
2022/01/11 11:24:11;;;;;;;6.10;5.50;;;5.60;99.90;;;;;;5030844;28;20206;-73
2022/01/11 11:26:39;;;;;;;5.35;4.85;;;5.50;99.90;;;;;;5028089;28;20204;-73
2022/01/11 11:29:07;;;;;;;4.93;4.53;;;5.40;99.90;;;;;;5034131;28;20219;-73
2022/01/11 11:31:34;;;;;;;8.02;4.93;;;5.30;99.90;;;;;;5031648;28;20211;-74
2022/01/11 11:34:03;;;;;;;6.07;5.18;;;5.50;99.90;;;;;;5032070;28;20187;-72
2022/01/11 11:36:30;;;;;;;5.82;5.05;;;5.60;99.90;;;;;;5027797;28;20181;-72
2022/01/11 11:39:03;;;;;;;6.60;5.72;;;5.60;99.90;;;;;;5028257;28;20648;-72
2022/01/11 11:41:31;;;;;;;5.70;4.97;;;5.60;99.90;;;;;;5030888;28;20751;-73
2022/01/11 11:44:12;;;;;;;5.60;5.10;;;5.70;99.90;;;;;;5028580;28;20211;-73
2022/01/11 11:46:43;;;;;;;6.53;5.53;;;5.70;99.90;;;;;;5031349;28;20280;-74
2022/01/11 11:49:08;;;;;;;6.53;5.78;;;5.60;99.90;;;;;;5029127;28;20188;-73
2022/01/11 11:51:41;;;;;;;5.57;5.05;;;5.50;99.90;;;;;;5027513;28;20593;-71
2022/01/11 11:54:16;;;;;;;5.20;4.70;;;5.60;99.90;;;;;;5032704;28;20670;-74
2022/01/11 11:56:58;;;;;;;5.35;4.75;;;5.80;99.90;;;;;;5028783;28;20585;-74
2022/01/11 11:59:25;;;;;;;4.50;4.10;;;5.90;99.90;;;;;;5030773;28;20641;-74
2022/01/11 12:01:50;;;;;;;5.18;4.45;;;5.90;99.90;;;;;;5028733;28;20220;-73
2022/01/11 12:04:19;;;;;;;4.82;4.40;;;6.10;99.90;;;;;;5025833;28;20176;-73
2022/01/11 12:06:47;;;;;;;4.85;4.45;;;6.20;99.90;;;;;;5029985;28;20208;-73
2022/01/11 12:09:17;;;;;;;5.55;4.07;;;6.20;99.90;;;;;;5023889;28;20185;-73
2022/01/11 12:11:45;;;;;;;5.97;4.18;;;5.90;99.90;;;;;;5023608;28;21347;-73
2022/01/11 12:14:30;;;;;;;5.40;4.90;;;5.80;99.90;;;;;;5031702;28;20188;-74
2022/01/11 12:17:11;;;;;;;4.90;4.47;;;7.40;99.90;;;;;;5029676;28;20284;-74
2022/01/11 12:19:56;;;;;;;4.40;4.00;;;9.20;99.90;;;;;;5024580;28;20181;-74
2022/01/11 12:22:31;;;;;;;3.97;3.67;;;12.30;94.80;;;;;;5024507;28;20212;-74
2022/01/11 12:24:59;;;;;;;4.13;3.85;;;14.90;86.20;;;;;;5030908;28;20184;-75
2022/01/11 12:27:25;;;;;;;4.65;4.25;;;16.50;72.30;;;;;;5029557;28;20169;-77
2022/01/11 12:30:09;;;;;;;3.92;3.60;;;18.10;60.50;;;;;;5032597;28;20251;-77
2022/01/11 12:32:56;;;;;;;4.45;4.05;;;18.90;56.80;;;;;;5027431;28;20259;-77
2022/01/11 12:35:22;;;;;;;3.92;3.50;;;20.00;54.10;;;;;;5031957;28;20191;-77
2022/01/11 12:37:48;;;;;;;3.70;3.33;;;19.20;52.80;;;;;;5030141;28;20275;-77
2022/01/11 12:40:28;;;;;;;3.92;3.60;;;16.70;55.40;;;;;;5031281;28;20184;-76
2022/01/11 12:43:07;;;;;;;4.50;4.10;;;14.70;59.10;;;;;;5027124;28;20211;-77
2022/01/11 12:46:07;;;;;;;4.40;4.00;;;12.70;62.60;;;;;;5030858;28;20177;-77
2022/01/11 12:48:45;;;;;;;4.65;4.25;;;11.40;66.60;;;;;;5021789;28;20726;-77
2022/01/11 12:51:22;;;;;;;6.45;5.45;;;10.60;70.30;;;;;;5034539;28;20191;-73
2022/01/11 12:53:49;;;;;;;5.80;5.22;;;10.00;72.30;;;;;;5024012;28;20204;-73